Time;durP1;ratioP1;P1;durP2;ratioP2;P2;SDS_P1;SDS_P2;PMS_P1;PMS_P2;Temp;Humidity;BMP_temperature;BMP_pressure;BME280_temperature;BME280_humidity;BME280_pressure;Samples;Min_cycle;Max_cycle;Signal;HPM_P1;HPM_P2
2021/01/07 00:00:35;;;;;;;10.40;9.13;;;;;;;;;;2099995;28;20284;-58
2021/01/07 00:01:38;;;;;;;11.80;9.73;;;;;;;;;;2091220;28;20296;-58
2021/01/07 00:02:39;;;;;;;11.67;10.03;;;;;;;;;;2090152;28;20183;-56
2021/01/07 00:03:39;;;;;;;12.53;9.67;;;;;;;;;;2090546;28;21051;-60
2021/01/07 00:04:39;;;;;;;10.93;9.53;;;;;;;;;;2083497;28;20262;-57
2021/01/07 00:05:40;;;;;;;11.17;9.63;;;;;;;;;;2090104;28;20617;-58
2021/01/07 00:06:41;;;;;;;11.53;9.30;;;;;;;;;;2089718;28;20290;-55
2021/01/07 00:07:41;;;;;;;11.63;9.20;;;;;;;;;;2096575;28;20408;-56
2021/01/07 00:08:42;;;;;;;10.53;9.43;;;;;;;;;;2098029;28;20167;-56
2021/01/07 00:09:42;;;;;;;12.37;9.83;;;;;;;;;;2089876;28;20671;-57
2021/01/07 00:10:43;;;;;;;11.33;8.70;;;;;;;;;;2098238;28;20163;-56
2021/01/07 00:11:43;;;;;;;11.23;9.13;;;;;;;;;;2095334;28;20185;-56
2021/01/07 00:12:43;;;;;;;10.83;9.50;;;;;;;;;;2089893;28;20650;-56
2021/01/07 00:13:44;;;;;;;9.63;8.50;;;;;;;;;;2086145;28;20633;-58
2021/01/07 00:14:44;;;;;;;11.07;9.00;;;;;;;;;;2081523;28;20254;-56
2021/01/07 00:15:44;;;;;;;12.27;9.43;;;;;;;;;;2088086;28;20191;-55
2021/01/07 00:16:44;;;;;;;11.17;9.27;;;;;;;;;;2098186;28;20222;-55
2021/01/07 00:17:45;;;;;;;13.03;10.23;;;;;;;;;;2088161;28;20183;-56
2021/01/07 00:18:45;;;;;;;11.57;9.40;;;;;;;;;;2089419;28;20217;-56
2021/01/07 00:19:46;;;;;;;12.00;9.43;;;;;;;;;;2097379;28;20185;-54
2021/01/07 00:20:46;;;;;;;10.93;9.83;;;;;;;;;;2093171;28;20171;-55
2021/01/07 00:21:46;;;;;;;10.83;9.30;;;;;;;;;;2093775;28;20200;-55
2021/01/07 00:22:46;;;;;;;12.07;9.20;;;;;;;;;;2090217;28;20172;-56
2021/01/07 00:23:47;;;;;;;12.23;10.10;;;;;;;;;;2095916;28;20179;-56
2021/01/07 00:24:47;;;;;;;9.87;8.87;;;;;;;;;;2090709;28;20167;-55
2021/01/07 00:25:49;;;;;;;10.47;9.13;;;;;;;;;;2096286;28;20265;-53
2021/01/07 00:26:49;;;;;;;11.77;10.00;;;;;;;;;;2089053;28;20915;-52
2021/01/07 00:27:49;;;;;;;11.33;9.37;;;;;;;;;;2083163;28;20176;-56
2021/01/07 00:28:49;;;;;;;10.43;9.17;;;;;;;;;;2098144;28;20179;-54
2021/01/07 00:29:50;;;;;;;11.10;9.50;;;;;;;;;;2097676;28;20171;-55
2021/01/07 00:30:50;;;;;;;11.43;9.87;;;;;;;;;;2090595;28;20617;-55
2021/01/07 00:31:50;;;;;;;9.73;8.70;;;;;;;;;;2084182;28;20178;-56
2021/01/07 00:32:51;;;;;;;12.30;9.27;;;;;;;;;;2098320;28;20739;-55
2021/01/07 00:33:51;;;;;;;11.43;9.53;;;;;;;;;;2097849;28;20200;-58
2021/01/07 00:34:51;;;;;;;12.37;9.67;;;;;;;;;;2097639;28;20532;-57
2021/01/07 00:35:51;;;;;;;10.13;9.03;;;;;;;;;;2095722;28;20670;-57
2021/01/07 00:36:55;;;;;;;11.43;9.37;;;;;;;;;;2082202;28;20290;-58
2021/01/07 00:39:15;;;;;;;10.73;9.47;;;;;;;;;;2083622;28;20456;-58
2021/01/07 00:40:15;;;;;;;10.43;9.40;;;;;;;;;;2088228;28;20429;-55
2021/01/07 00:41:24;;;;;;;10.40;8.87;;;;;;;;;;2086921;28;20318;-58
2021/01/07 00:42:25;;;;;;;9.73;8.73;;;;;;;;;;2088332;28;20176;-57
2021/01/07 00:43:25;;;;;;;11.47;9.00;;;;;;;;;;2080556;28;20184;-53
2021/01/07 00:44:26;;;;;;;12.10;9.90;;;;;;;;;;2079706;28;20178;-55
2021/01/07 00:45:26;;;;;;;11.90;9.40;;;;;;;;;;2078763;28;20184;-55
2021/01/07 00:46:27;;;;;;;10.90;8.97;;;;;;;;;;2080381;28;20507;-55
2021/01/07 00:47:27;;;;;;;12.57;9.80;;;;;;;;;;2087196;28;20176;-58
2021/01/07 00:48:27;;;;;;;10.70;9.40;;;;;;;;;;2080167;28;20262;-60
2021/01/07 00:49:28;;;;;;;13.50;10.20;;;;;;;;;;2080063;28;20196;-57
2021/01/07 00:50:28;;;;;;;10.70;9.43;;;;;;;;;;2081179;28;20175;-56
2021/01/07 00:51:32;;;;;;;10.73;9.47;;;;;;;;;;2072609;28;20184;-58
2021/01/07 00:52:33;;;;;;;10.93;9.83;;;;;;;;;;2081157;28;20242;-55
2021/01/07 00:53:34;;;;;;;11.33;9.60;;;;;;;;;;2090116;28;20469;-56
2021/01/07 00:54:35;;;;;;;10.83;9.40;;;;;;;;;;2087085;28;20172;-56
2021/01/07 00:55:35;;;;;;;11.17;9.23;;;;;;;;;;2083318;28;20641;-57
2021/01/07 00:56:39;;;;;;;10.87;9.73;;;;;;;;;;2075789;28;20181;-59
2021/01/07 00:57:44;;;;;;;12.00;9.80;;;;;;;;;;2076621;28;20452;-59
2021/01/07 00:58:45;;;;;;;15.23;10.87;;;;;;;;;;2083420;28;20495;-58
2021/01/07 00:59:45;;;;;;;11.23;10.03;;;;;;;;;;2091205;28;20175;-56
2021/01/07 01:00:45;;;;;;;11.37;10.17;;;;;;;;;;2077974;28;20172;-54
2021/01/07 01:01:46;;;;;;;12.33;9.37;;;;;;;;;;2079969;28;20203;-54
2021/01/07 01:02:46;;;;;;;11.53;10.27;;;;;;;;;;2080567;28;20191;-57
2021/01/07 01:03:46;;;;;;;10.47;9.10;;;;;;;;;;2080626;28;20227;-54
2021/01/07 01:04:47;;;;;;;10.93;9.37;;;;;;;;;;2082449;28;20176;-56
2021/01/07 01:05:48;;;;;;;11.27;10.00;;;;;;;;;;2089042;28;20159;-55
2021/01/07 01:06:48;;;;;;;10.03;8.93;;;;;;;;;;2082387;28;20173;-56
2021/01/07 01:07:48;;;;;;;10.20;8.80;;;;;;;;;;2079315;28;20413;-57
2021/01/07 01:08:48;;;;;;;11.90;8.50;;;;;;;;;;2080771;28;20183;-54
2021/01/07 01:09:49;;;;;;;10.20;9.20;;;;;;;;;;2080013;28;20176;-52
2021/01/07 01:10:49;;;;;;;10.17;9.07;;;;;;;;;;2080882;28;20184;-53
2021/01/07 01:11:49;;;;;;;13.53;9.80;;;;;;;;;;2088845;28;20172;-55
2021/01/07 01:12:49;;;;;;;10.60;9.53;;;;;;;;;;2088839;28;20256;-54
2021/01/07 01:13:50;;;;;;;9.80;8.67;;;;;;;;;;2088501;28;20196;-54
2021/01/07 01:14:50;;;;;;;10.13;9.13;;;;;;;;;;2079309;28;20191;-52
2021/01/07 01:15:50;;;;;;;11.67;8.83;;;;;;;;;;2072375;28;20310;-56
2021/01/07 01:16:51;;;;;;;10.67;9.47;;;;;;;;;;2080285;28;20223;-55
2021/01/07 01:17:51;;;;;;;9.73;8.57;;;;;;;;;;2079809;28;20234;-56
2021/01/07 01:18:52;;;;;;;10.10;8.87;;;;;;;;;;2080153;28;20314;-54
2021/01/07 01:19:52;;;;;;;9.80;8.80;;;;;;;;;;2089378;28;20180;-56
2021/01/07 01:20:52;;;;;;;10.23;8.90;;;;;;;;;;2088441;28;20221;-55
2021/01/07 01:21:53;;;;;;;9.67;8.67;;;;;;;;;;2079717;28;20235;-56
2021/01/07 01:22:53;;;;;;;9.90;8.90;;;;;;;;;;2071661;28;20188;-57
2021/01/07 01:23:53;;;;;;;9.03;7.97;;;;;;;;;;2072486;28;20173;-55
2021/01/07 01:24:55;;;;;;;9.20;8.07;;;;;;;;;;2072145;28;20255;-56
2021/01/07 01:25:56;;;;;;;10.40;7.47;;;;;;;;;;2089211;28;20171;-56
2021/01/07 01:26:57;;;;;;;8.80;7.73;;;;;;;;;;2088602;28;20462;-58
2021/01/07 01:27:57;;;;;;;9.90;7.80;;;;;;;;;;2088488;28;20179;-54
2021/01/07 01:28:58;;;;;;;8.07;7.37;;;;;;;;;;2088714;28;20227;-57
2021/01/07 01:29:58;;;;;;;10.90;8.30;;;;;;;;;;2088696;28;20202;-54
2021/01/07 01:30:58;;;;;;;7.90;7.10;;;;;;;;;;2080684;28;20202;-58
2021/01/07 01:31:58;;;;;;;8.40;7.50;;;;;;;;;;2086377;28;20167;-56
2021/01/07 01:32:59;;;;;;;9.70;7.30;;;;;;;;;;2088579;28;20191;-57
2021/01/07 01:33:59;;;;;;;8.17;7.30;;;;;;;;;;2089468;28;20183;-57
2021/01/07 01:34:59;;;;;;;10.60;8.63;;;;;;;;;;2088379;28;20559;-60
2021/01/07 01:35:59;;;;;;;8.70;7.83;;;;;;;;;;2088562;28;20638;-56
2021/01/07 01:37:04;;;;;;;9.23;7.60;;;;;;;;;;2079961;28;20672;-56
2021/01/07 01:38:05;;;;;;;7.60;6.90;;;;;;;;;;2079485;28;20653;-56
2021/01/07 01:39:05;;;;;;;7.83;6.73;;;;;;;;;;2083221;28;20237;-56
2021/01/07 01:40:09;;;;;;;8.13;7.30;;;;;;;;;;2089132;28;20189;-58
2021/01/07 01:41:09;;;;;;;8.53;7.60;;;;;;;;;;2084189;28;20300;-58
2021/01/07 01:42:11;;;;;;;7.73;7.03;;;;;;;;;;2088959;28;20412;-57
2021/01/07 01:43:11;;;;;;;8.53;6.93;;;;;;;;;;2086186;28;20267;-58
2021/01/07 01:44:12;;;;;;;7.70;6.90;;;;;;;;;;2085621;28;20186;-55
2021/01/07 01:45:12;;;;;;;8.03;7.23;;;;;;;;;;2081119;28;20267;-57
2021/01/07 01:46:13;;;;;;;7.33;6.63;;;;;;;;;;2082237;28;20176;-56
2021/01/07 01:47:13;;;;;;;9.10;7.37;;;;;;;;;;2085362;28;20196;-54
2021/01/07 01:48:13;;;;;;;8.63;6.93;;;;;;;;;;2087111;28;20694;-57
2021/01/07 01:49:14;;;;;;;7.57;6.80;;;;;;;;;;2076494;28;20688;-57
2021/01/07 01:50:15;;;;;;;7.97;7.10;;;;;;;;;;2074271;28;20184;-56
2021/01/07 01:51:15;;;;;;;7.57;6.87;;;;;;;;;;2089851;28;20465;-56
2021/01/07 01:52:16;;;;;;;8.23;6.80;;;;;;;;;;2082165;28;20184;-56
2021/01/07 01:53:16;;;;;;;7.37;6.67;;;;;;;;;;2085399;28;20176;-56
2021/01/07 01:54:16;;;;;;;7.43;6.73;;;;;;;;;;2091276;28;20222;-54
2021/01/07 01:55:17;;;;;;;7.43;6.47;;;;;;;;;;2087589;28;20192;-53
2021/01/07 01:56:17;;;;;;;7.67;6.90;;;;;;;;;;2087796;28;20309;-54
2021/01/07 01:57:18;;;;;;;7.97;7.17;;;;;;;;;;2089661;28;20175;-54
2021/01/07 01:58:18;;;;;;;7.73;6.90;;;;;;;;;;2090928;28;20176;-56
2021/01/07 01:59:20;;;;;;;8.23;7.43;;;;;;;;;;2086799;28;20459;-58
2021/01/07 02:00:20;;;;;;;8.93;6.93;;;;;;;;;;2081496;28;20666;-57
2021/01/07 02:01:21;;;;;;;7.87;6.80;;;;;;;;;;2065122;28;20490;-57
2021/01/07 02:02:21;;;;;;;7.53;6.20;;;;;;;;;;2073816;28;20180;-55
2021/01/07 02:03:22;;;;;;;8.97;7.23;;;;;;;;;;2085266;28;20188;-58
2021/01/07 02:04:22;;;;;;;8.77;7.67;;;;;;;;;;2088004;28;20206;-58
2021/01/07 02:05:22;;;;;;;9.57;7.03;;;;;;;;;;2090285;28;20214;-56
2021/01/07 02:06:24;;;;;;;7.63;6.70;;;;;;;;;;2090891;28;20183;-57
2021/01/07 02:07:26;;;;;;;8.33;7.47;;;;;;;;;;2089830;28;20655;-54
2021/01/07 02:08:27;;;;;;;8.40;7.60;;;;;;;;;;2090049;28;20441;-56
2021/01/07 02:09:28;;;;;;;9.00;7.47;;;;;;;;;;2088533;28;20197;-54
2021/01/07 02:10:29;;;;;;;8.20;7.37;;;;;;;;;;2090033;28;21033;-59
2021/01/07 02:11:30;;;;;;;9.30;7.50;;;;;;;;;;2090866;28;20179;-58
2021/01/07 02:12:30;;;;;;;9.03;8.13;;;;;;;;;;2090099;28;20416;-58
2021/01/07 02:13:30;;;;;;;8.93;7.87;;;;;;;;;;2090863;28;20303;-56
2021/01/07 02:14:31;;;;;;;10.27;8.03;;;;;;;;;;2088601;28;20170;-55
2021/01/07 02:15:31;;;;;;;9.80;8.63;;;;;;;;;;2089448;28;20178;-56
2021/01/07 02:16:31;;;;;;;10.80;9.13;;;;;;;;;;2088478;28;20644;-58
2021/01/07 02:17:31;;;;;;;12.33;9.10;;;;;;;;;;2081442;28;20172;-54
2021/01/07 02:18:32;;;;;;;11.53;8.87;;;;;;;;;;2081332;28;20203;-58
2021/01/07 02:19:32;;;;;;;10.70;9.20;;;;;;;;;;2088309;28;20182;-55
2021/01/07 02:20:33;;;;;;;10.67;8.90;;;;;;;;;;2089140;28;20214;-56
2021/01/07 02:21:37;;;;;;;11.97;9.20;;;;;;;;;;2090484;28;20207;-54
2021/01/07 02:22:37;;;;;;;12.83;9.40;;;;;;;;;;2085794;28;20180;-57
2021/01/07 02:23:50;;;;;;;12.83;10.10;;;;;;;;;;2090379;28;20443;-59
2021/01/07 02:24:51;;;;;;;11.07;9.20;;;;;;;;;;2087491;28;20179;-53
2021/01/07 02:25:51;;;;;;;12.50;9.53;;;;;;;;;;2085368;28;20783;-56
2021/01/07 02:26:52;;;;;;;12.90;9.90;;;;;;;;;;2090048;28;20253;-55
2021/01/07 02:27:52;;;;;;;12.23;10.03;;;;;;;;;;2090041;28;20645;-56
2021/01/07 02:28:52;;;;;;;13.23;10.77;;;;;;;;;;2090486;28;20741;-59
2021/01/07 02:29:53;;;;;;;11.20;9.43;;;;;;;;;;2090565;28;20186;-58
2021/01/07 02:30:53;;;;;;;15.43;10.27;;;;;;;;;;2080671;28;20227;-57
2021/01/07 02:31:53;;;;;;;13.37;9.80;;;;;;;;;;2088318;28;20168;-53
2021/01/07 02:32:54;;;;;;;14.97;11.27;;;;;;;;;;2084054;28;20664;-54
2021/01/07 02:33:54;;;;;;;12.67;10.17;;;;;;;;;;2089524;28;20596;-55
2021/01/07 02:34:54;;;;;;;13.40;10.90;;;;;;;;;;2084323;28;20168;-58
2021/01/07 02:35:54;;;;;;;13.93;10.90;;;;;;;;;;2089836;28;20166;-56
2021/01/07 02:36:55;;;;;;;12.83;10.17;;;;;;;;;;2084229;28;20222;-55
2021/01/07 02:37:55;;;;;;;13.97;11.37;;;;;;;;;;2089060;28;20616;-55
2021/01/07 02:38:55;;;;;;;14.70;10.53;;;;;;;;;;2084295;28;20304;-54
2021/01/07 02:39:55;;;;;;;15.10;11.47;;;;;;;;;;2090041;28;20222;-53
2021/01/07 02:40:55;;;;;;;13.43;10.20;;;;;;;;;;2073009;28;20240;-56
2021/01/07 02:41:56;;;;;;;15.97;11.00;;;;;;;;;;2071676;28;20315;-54
2021/01/07 02:42:56;;;;;;;15.50;11.00;;;;;;;;;;2090681;28;20179;-54
2021/01/07 02:43:57;;;;;;;15.77;11.20;;;;;;;;;;2088282;28;20645;-54
2021/01/07 02:45:00;;;;;;;12.37;10.13;;;;;;;;;;2089236;28;20366;-58
2021/01/07 02:46:00;;;;;;;13.73;10.77;;;;;;;;;;2087699;28;20601;-53
2021/01/07 02:47:01;;;;;;;14.77;10.87;;;;;;;;;;2089704;28;20172;-53
2021/01/07 02:48:01;;;;;;;13.80;10.33;;;;;;;;;;2089805;28;20175;-53
2021/01/07 02:49:01;;;;;;;13.87;10.17;;;;;;;;;;2087355;28;20289;-56
2021/01/07 02:50:02;;;;;;;16.60;11.23;;;;;;;;;;2090280;28;20663;-54
2021/01/07 02:51:03;;;;;;;12.80;10.10;;;;;;;;;;2080846;28;20176;-56
2021/01/07 02:52:03;;;;;;;12.50;9.03;;;;;;;;;;2081021;28;20508;-55
2021/01/07 02:53:03;;;;;;;15.70;11.07;;;;;;;;;;2086236;28;20197;-56
2021/01/07 02:54:04;;;;;;;15.27;10.80;;;;;;;;;;2081301;28;20157;-56
2021/01/07 02:55:05;;;;;;;12.00;9.63;;;;;;;;;;2080712;28;20181;-54
2021/01/07 02:56:05;;;;;;;13.63;10.53;;;;;;;;;;2085592;28;20437;-53
2021/01/07 02:57:05;;;;;;;14.77;10.83;;;;;;;;;;2080749;28;20169;-56
2021/01/07 02:58:06;;;;;;;14.80;10.70;;;;;;;;;;2073205;28;20227;-55
2021/01/07 02:59:06;;;;;;;13.87;9.77;;;;;;;;;;2081248;28;20164;-55
2021/01/07 03:00:06;;;;;;;13.50;9.60;;;;;;;;;;2089141;28;20198;-53
2021/01/07 03:01:07;;;;;;;12.93;9.47;;;;;;;;;;2090226;28;20640;-57
2021/01/07 03:02:07;;;;;;;14.27;10.53;;;;;;;;;;2080761;28;20176;-56
2021/01/07 03:03:07;;;;;;;15.13;10.73;;;;;;;;;;2081561;28;20238;-53
2021/01/07 03:04:08;;;;;;;17.10;11.13;;;;;;;;;;2089802;28;20259;-54
2021/01/07 03:05:08;;;;;;;16.77;11.03;;;;;;;;;;2079144;28;20211;-56
2021/01/07 03:06:10;;;;;;;12.87;10.53;;;;;;;;;;2081379;28;20649;-57
2021/01/07 03:07:10;;;;;;;14.27;10.53;;;;;;;;;;2087240;28;20175;-58
2021/01/07 03:08:11;;;;;;;13.67;10.63;;;;;;;;;;2089889;28;20178;-59
2021/01/07 03:09:11;;;;;;;13.47;10.37;;;;;;;;;;2090230;28;20179;-54
2021/01/07 03:10:11;;;;;;;13.73;9.97;;;;;;;;;;2089180;28;20217;-57
2021/01/07 03:11:12;;;;;;;14.50;11.27;;;;;;;;;;2081106;28;20255;-55
2021/01/07 03:12:13;;;;;;;13.70;10.17;;;;;;;;;;2080719;28;20192;-53
2021/01/07 03:13:13;;;;;;;12.50;9.13;;;;;;;;;;2081706;28;20172;-55
2021/01/07 03:14:13;;;;;;;15.23;11.53;;;;;;;;;;2081836;28;20504;-56
2021/01/07 03:15:13;;;;;;;16.60;10.47;;;;;;;;;;2090408;28;20176;-53
2021/01/07 03:16:14;;;;;;;13.30;10.27;;;;;;;;;;2090822;28;20325;-56
2021/01/07 03:17:14;;;;;;;17.23;11.30;;;;;;;;;;2088321;28;20258;-54
2021/01/07 03:18:14;;;;;;;17.00;11.20;;;;;;;;;;2078205;28;20170;-55
2021/01/07 03:19:15;;;;;;;13.47;9.07;;;;;;;;;;2081716;28;20215;-58
2021/01/07 03:20:16;;;;;;;13.90;10.10;;;;;;;;;;2091321;28;20194;-55
2021/01/07 03:21:16;;;;;;;14.40;10.63;;;;;;;;;;2088146;28;20213;-58
2021/01/07 03:22:16;;;;;;;13.03;10.03;;;;;;;;;;2087590;28;20723;-56
2021/01/07 03:23:16;;;;;;;15.33;10.53;;;;;;;;;;2087603;28;20179;-56
2021/01/07 03:24:17;;;;;;;13.90;11.13;;;;;;;;;;2087234;28;20163;-54
2021/01/07 03:25:17;;;;;;;16.60;11.07;;;;;;;;;;2077757;28;20175;-57
2021/01/07 03:26:17;;;;;;;17.27;11.43;;;;;;;;;;2078965;28;20185;-57
2021/01/07 03:27:17;;;;;;;14.83;10.77;;;;;;;;;;2089568;28;20184;-60
2021/01/07 03:28:18;;;;;;;17.90;10.97;;;;;;;;;;2091826;28;20609;-57
2021/01/07 03:29:18;;;;;;;16.67;10.80;;;;;;;;;;2086786;28;20524;-59
2021/01/07 03:30:18;;;;;;;13.77;11.03;;;;;;;;;;2089427;28;20183;-61
2021/01/07 03:31:19;;;;;;;13.67;10.80;;;;;;;;;;2091183;28;20192;-60
2021/01/07 03:32:21;;;;;;;15.33;11.33;;;;;;;;;;2091128;28;20271;-59
2021/01/07 03:33:22;;;;;;;13.83;10.47;;;;;;;;;;2087963;28;20238;-59
2021/01/07 03:34:22;;;;;;;14.17;11.17;;;;;;;;;;2082101;28;20496;-56
2021/01/07 03:35:22;;;;;;;15.50;11.33;;;;;;;;;;2072651;28;20188;-56
2021/01/07 03:36:23;;;;;;;15.70;11.63;;;;;;;;;;2081791;28;20180;-55
2021/01/07 03:37:23;;;;;;;14.67;11.23;;;;;;;;;;2086520;28;20262;-56
2021/01/07 03:38:23;;;;;;;13.90;10.77;;;;;;;;;;2073903;28;20723;-54
2021/01/07 03:39:23;;;;;;;15.80;11.17;;;;;;;;;;2076563;28;20642;-53
2021/01/07 03:40:23;;;;;;;15.17;11.43;;;;;;;;;;2084041;28;20230;-55
2021/01/07 03:41:24;;;;;;;16.83;12.33;;;;;;;;;;2088239;28;20276;-56
2021/01/07 03:42:24;;;;;;;14.17;10.87;;;;;;;;;;2086078;28;20165;-53
2021/01/07 03:43:24;;;;;;;16.50;11.53;;;;;;;;;;2073216;28;20788;-54
2021/01/07 03:44:24;;;;;;;14.27;11.20;;;;;;;;;;2073414;28;20227;-58
2021/01/07 03:45:25;;;;;;;14.43;11.40;;;;;;;;;;2086733;28;20176;-58
2021/01/07 03:46:25;;;;;;;13.47;11.03;;;;;;;;;;2090367;28;20175;-56
2021/01/07 03:47:25;;;;;;;10.90;9.27;;;;;;;;;;2086510;28;20312;-59
2021/01/07 03:48:26;;;;;;;15.57;10.80;;;;;;;;;;2090554;28;20206;-58
2021/01/07 03:49:26;;;;;;;14.47;10.63;;;;;;;;;;2088247;28;20206;-57
2021/01/07 03:50:26;;;;;;;11.67;9.87;;;;;;;;;;2089931;28;20172;-57
2021/01/07 03:51:26;;;;;;;12.50;10.00;;;;;;;;;;2081551;28;20199;-58
2021/01/07 03:52:26;;;;;;;15.83;11.00;;;;;;;;;;2081011;28;20200;-52
2021/01/07 03:53:27;;;;;;;15.00;10.70;;;;;;;;;;2084390;28;20184;-53
2021/01/07 03:54:27;;;;;;;13.37;9.87;;;;;;;;;;2088198;28;20251;-58
2021/01/07 03:55:27;;;;;;;14.53;10.37;;;;;;;;;;2081516;28;20175;-58
2021/01/07 03:56:28;;;;;;;12.43;9.77;;;;;;;;;;2081731;28;20184;-58
2021/01/07 03:57:28;;;;;;;13.90;11.13;;;;;;;;;;2087459;28;20190;-57
2021/01/07 03:58:28;;;;;;;13.97;10.07;;;;;;;;;;2088522;28;20195;-56
2021/01/07 03:59:28;;;;;;;11.13;9.17;;;;;;;;;;2078892;28;20176;-53
2021/01/07 04:00:29;;;;;;;11.33;9.27;;;;;;;;;;2080691;28;20191;-54
2021/01/07 04:01:29;;;;;;;13.47;10.40;;;;;;;;;;2089477;28;20585;-54
2021/01/07 04:02:29;;;;;;;16.87;10.97;;;;;;;;;;2073178;28;20189;-53
2021/01/07 04:03:29;;;;;;;15.17;10.23;;;;;;;;;;2073075;28;20177;-53
2021/01/07 04:04:30;;;;;;;13.33;9.93;;;;;;;;;;2088350;28;20211;-55
2021/01/07 04:05:30;;;;;;;14.63;10.17;;;;;;;;;;2079689;28;20728;-55
2021/01/07 04:06:30;;;;;;;12.13;9.53;;;;;;;;;;2081404;28;20203;-55
2021/01/07 04:07:30;;;;;;;13.57;10.37;;;;;;;;;;2080704;28;20176;-55
2021/01/07 04:08:31;;;;;;;14.23;10.70;;;;;;;;;;2081388;28;20191;-57
2021/01/07 04:09:31;;;;;;;15.67;10.40;;;;;;;;;;2084601;28;20176;-51
2021/01/07 04:10:31;;;;;;;15.30;11.27;;;;;;;;;;2087229;28;20188;-55
2021/01/07 04:11:31;;;;;;;12.53;10.20;;;;;;;;;;2088827;28;20176;-55
2021/01/07 04:12:32;;;;;;;13.30;10.03;;;;;;;;;;2080327;28;20743;-55
2021/01/07 04:13:32;;;;;;;15.00;10.47;;;;;;;;;;2065376;28;20574;-52
2021/01/07 04:14:32;;;;;;;12.20;9.73;;;;;;;;;;2079995;28;20727;-52
2021/01/07 04:15:33;;;;;;;14.30;11.07;;;;;;;;;;2086083;28;20211;-55
2021/01/07 04:16:33;;;;;;;13.30;10.43;;;;;;;;;;2090124;28;20609;-56
2021/01/07 04:17:33;;;;;;;11.60;9.90;;;;;;;;;;2088273;28;20233;-57
2021/01/07 04:18:33;;;;;;;14.07;10.23;;;;;;;;;;2089531;28;20211;-56
2021/01/07 04:19:34;;;;;;;15.73;11.23;;;;;;;;;;2089410;28;20199;-56
2021/01/07 04:20:34;;;;;;;16.40;11.17;;;;;;;;;;2088723;28;20212;-54
2021/01/07 04:21:44;;;;;;;15.50;10.10;;;;;;;;;;2088231;28;20542;-54
2021/01/07 04:22:45;;;;;;;15.80;10.80;;;;;;;;;;2087018;28;20302;-56
2021/01/07 04:23:45;;;;;;;17.40;10.73;;;;;;;;;;2089535;28;20439;-59
2021/01/07 04:24:45;;;;;;;16.50;10.40;;;;;;;;;;2089490;28;20187;-53
2021/01/07 04:25:46;;;;;;;13.50;10.23;;;;;;;;;;2089687;28;20164;-55
2021/01/07 04:26:46;;;;;;;14.17;11.33;;;;;;;;;;2080632;28;20565;-54
2021/01/07 04:27:46;;;;;;;11.40;9.67;;;;;;;;;;2080497;28;20252;-53
2021/01/07 04:28:46;;;;;;;13.83;10.07;;;;;;;;;;2085644;28;20732;-56
2021/01/07 04:29:47;;;;;;;12.50;10.63;;;;;;;;;;2080153;28;20652;-52
2021/01/07 04:30:48;;;;;;;16.10;9.70;;;;;;;;;;2080820;28;20181;-54
2021/01/07 04:31:48;;;;;;;13.40;9.70;;;;;;;;;;2089874;28;20195;-55
2021/01/07 04:32:48;;;;;;;13.97;9.00;;;;;;;;;;2085451;28;20184;-55
2021/01/07 04:33:48;;;;;;;12.03;9.57;;;;;;;;;;2089528;28;20253;-56
2021/01/07 04:34:48;;;;;;;14.43;10.80;;;;;;;;;;2068395;28;20243;-54
2021/01/07 04:35:49;;;;;;;13.93;9.97;;;;;;;;;;2079932;28;20660;-54
2021/01/07 04:36:49;;;;;;;14.13;9.80;;;;;;;;;;2080574;28;20668;-55
2021/01/07 04:37:49;;;;;;;13.83;10.30;;;;;;;;;;2087977;28;20195;-54
2021/01/07 04:38:49;;;;;;;13.20;10.10;;;;;;;;;;2082505;28;20750;-54
2021/01/07 04:39:50;;;;;;;12.90;9.03;;;;;;;;;;2089694;28;20598;-55
2021/01/07 04:40:50;;;;;;;10.40;9.30;;;;;;;;;;2088848;28;20211;-58
2021/01/07 04:41:50;;;;;;;13.03;10.27;;;;;;;;;;2089483;28;20683;-57
2021/01/07 04:42:50;;;;;;;12.77;10.40;;;;;;;;;;2082951;28;20222;-53
2021/01/07 04:43:57;;;;;;;12.33;10.03;;;;;;;;;;2088420;28;20176;-56
2021/01/07 04:44:58;;;;;;;13.23;10.50;;;;;;;;;;2088594;28;20184;-54
2021/01/07 04:45:58;;;;;;;14.30;11.27;;;;;;;;;;2081063;28;20506;-54
2021/01/07 04:46:58;;;;;;;14.50;11.00;;;;;;;;;;2078545;28;20540;-55
2021/01/07 04:48:00;;;;;;;14.53;10.80;;;;;;;;;;2080340;28;20246;-55
2021/01/07 04:49:01;;;;;;;14.50;10.90;;;;;;;;;;2089600;28;20284;-55
2021/01/07 04:50:01;;;;;;;15.40;10.47;;;;;;;;;;2088720;28;20429;-53
2021/01/07 04:51:01;;;;;;;15.60;11.03;;;;;;;;;;2089817;28;20687;-54
2021/01/07 04:52:02;;;;;;;13.80;10.83;;;;;;;;;;2088179;28;20191;-54
2021/01/07 04:53:02;;;;;;;13.03;10.23;;;;;;;;;;2087326;28;20172;-56
2021/01/07 04:54:02;;;;;;;14.77;11.27;;;;;;;;;;2075957;28;20629;-54
2021/01/07 04:55:03;;;;;;;14.33;11.10;;;;;;;;;;2072608;28;20652;-56
2021/01/07 04:56:03;;;;;;;16.37;10.70;;;;;;;;;;2081251;28;20760;-57
2021/01/07 04:57:04;;;;;;;16.83;11.67;;;;;;;;;;2089140;28;20262;-58
2021/01/07 04:58:04;;;;;;;17.60;11.30;;;;;;;;;;2084782;28;20192;-60
2021/01/07 04:59:04;;;;;;;14.23;10.97;;;;;;;;;;2085070;28;20243;-57
2021/01/07 05:00:06;;;;;;;15.00;11.50;;;;;;;;;;2078885;28;20803;-57
2021/01/07 05:01:06;;;;;;;15.17;11.40;;;;;;;;;;2081682;28;20180;-58
2021/01/07 05:02:06;;;;;;;17.40;11.97;;;;;;;;;;2089437;28;20425;-57
2021/01/07 05:03:06;;;;;;;17.37;11.73;;;;;;;;;;2090008;28;20682;-57
2021/01/07 05:04:09;;;;;;;16.77;11.67;;;;;;;;;;2086971;28;20293;-53
2021/01/07 05:05:09;;;;;;;17.50;11.90;;;;;;;;;;2080867;28;20230;-58
2021/01/07 05:06:09;;;;;;;14.53;11.20;;;;;;;;;;2072257;28;20489;-58
2021/01/07 05:07:09;;;;;;;16.27;11.20;;;;;;;;;;2080409;28;20182;-60
2021/01/07 05:08:10;;;;;;;15.90;11.63;;;;;;;;;;2080812;28;20184;-59
2021/01/07 05:09:10;;;;;;;14.60;11.37;;;;;;;;;;2080739;28;20160;-57
2021/01/07 05:10:10;;;;;;;13.40;11.37;;;;;;;;;;2090729;28;20198;-58
2021/01/07 05:11:11;;;;;;;14.17;10.80;;;;;;;;;;2089317;28;20216;-59
2021/01/07 05:12:12;;;;;;;12.80;10.50;;;;;;;;;;2087337;28;20812;-55
2021/01/07 05:13:16;;;;;;;15.47;10.97;;;;;;;;;;2088358;28;20249;-59
2021/01/07 05:14:16;;;;;;;13.87;10.50;;;;;;;;;;2087523;28;20478;-60
2021/01/07 05:15:17;;;;;;;13.73;10.53;;;;;;;;;;2089281;28;20440;-60
2021/01/07 05:16:20;;;;;;;11.77;9.53;;;;;;;;;;2082153;28;20176;-55
2021/01/07 05:17:20;;;;;;;13.83;10.20;;;;;;;;;;2081570;28;20180;-60
2021/01/07 05:18:21;;;;;;;12.60;9.67;;;;;;;;;;2081667;28;20417;-57
2021/01/07 05:19:21;;;;;;;13.13;9.67;;;;;;;;;;2081453;28;20269;-56
2021/01/07 05:20:21;;;;;;;14.60;10.30;;;;;;;;;;2088604;28;20214;-55
2021/01/07 05:21:22;;;;;;;11.70;9.17;;;;;;;;;;2084538;28;20172;-53
2021/01/07 05:22:34;;;;;;;9.70;8.57;;;;;;;;;;2089457;28;20184;-57
2021/01/07 05:23:34;;;;;;;12.67;8.90;;;;;;;;;;2089697;28;20202;-57
2021/01/07 05:24:36;;;;;;;11.10;8.90;;;;;;;;;;2091082;28;20412;-54
2021/01/07 05:25:37;;;;;;;12.97;10.30;;;;;;;;;;2089323;28;20176;-57
2021/01/07 05:26:37;;;;;;;14.10;10.27;;;;;;;;;;2088339;28;20421;-57
2021/01/07 05:27:39;;;;;;;13.83;9.40;;;;;;;;;;2089291;28;21012;-53
2021/01/07 05:28:39;;;;;;;13.03;9.67;;;;;;;;;;2089403;28;20200;-58
2021/01/07 05:29:40;;;;;;;14.67;9.07;;;;;;;;;;2081068;28;20877;-56
2021/01/07 05:30:42;;;;;;;11.27;9.33;;;;;;;;;;2080034;28;20259;-62
2021/01/07 05:31:49;;;;;;;11.20;8.77;;;;;;;;;;2088854;28;20270;-58
2021/01/07 05:32:49;;;;;;;11.43;8.80;;;;;;;;;;2089020;28;20441;-60
2021/01/07 05:33:50;;;;;;;10.60;8.53;;;;;;;;;;2082299;28;20397;-60
2021/01/07 05:34:50;;;;;;;10.23;8.73;;;;;;;;;;2074057;28;20216;-57
2021/01/07 05:35:51;;;;;;;11.17;9.37;;;;;;;;;;2082748;28;20172;-58
2021/01/07 05:36:55;;;;;;;11.37;8.87;;;;;;;;;;2087422;28;20258;-56
2021/01/07 05:37:59;;;;;;;12.87;9.13;;;;;;;;;;2089717;28;20191;-58
2021/01/07 05:39:04;;;;;;;12.67;9.37;;;;;;;;;;2091101;28;20678;-60
2021/01/07 05:40:06;;;;;;;12.10;8.50;;;;;;;;;;2081929;28;21060;-59
2021/01/07 05:41:10;;;;;;;13.00;9.90;;;;;;;;;;2081170;28;20421;-57
2021/01/07 05:42:11;;;;;;;11.53;8.67;;;;;;;;;;2090934;28;20454;-56
2021/01/07 05:43:11;;;;;;;13.00;9.37;;;;;;;;;;2091231;28;20428;-56
2021/01/07 05:44:13;;;;;;;9.87;8.13;;;;;;;;;;2090969;28;20210;-57
2021/01/07 05:45:14;;;;;;;10.87;8.97;;;;;;;;;;2081878;28;20195;-55
2021/01/07 05:46:16;;;;;;;13.70;10.50;;;;;;;;;;2075228;28;20426;-56
2021/01/07 05:47:27;;;;;;;13.07;10.33;;;;;;;;;;2084086;28;20827;-59
2021/01/07 05:48:31;;;;;;;12.07;9.20;;;;;;;;;;2085383;28;20437;-58
2021/01/07 05:49:35;;;;;;;13.00;9.70;;;;;;;;;;2093541;28;20508;-57
2021/01/07 05:50:40;;;;;;;12.77;9.63;;;;;;;;;;2092680;28;20416;-55
2021/01/07 05:51:42;;;;;;;9.87;7.90;;;;;;;;;;2091893;28;20462;-60
2021/01/07 05:52:43;;;;;;;12.80;9.30;;;;;;;;;;2083743;28;20427;-57
2021/01/07 05:53:45;;;;;;;11.43;9.13;;;;;;;;;;2083753;28;20449;-56
2021/01/07 05:54:45;;;;;;;12.73;9.23;;;;;;;;;;2093125;28;20168;-57
2021/01/07 05:55:45;;;;;;;11.63;9.40;;;;;;;;;;2093299;28;20389;-58
2021/01/07 05:56:46;;;;;;;11.87;8.50;;;;;;;;;;2094455;28;20196;-58
2021/01/07 05:57:46;;;;;;;13.47;9.50;;;;;;;;;;2094973;28;20163;-58
2021/01/07 05:58:51;;;;;;;10.80;9.00;;;;;;;;;;2093881;28;20576;-58